createdAt,value
2023-03-27T00:02:28.957Z,26.10
2023-03-27T00:04:56.779Z,26.00
2023-03-27T00:07:24.434Z,26.00
2023-03-27T00:09:53.413Z,26.00
2023-03-27T00:12:22.485Z,26.00
2023-03-27T00:14:50.077Z,26.00
2023-03-27T00:17:17.682Z,26.00
2023-03-27T00:19:45.291Z,26.00
2023-03-27T00:22:12.967Z,26.00
2023-03-27T00:24:40.574Z,26.00
2023-03-27T00:27:09.120Z,26.00
2023-03-27T00:29:39.655Z,26.00
2023-03-27T00:32:07.955Z,26.00
2023-03-27T00:34:35.535Z,26.00
2023-03-27T00:37:05.450Z,26.00
2023-03-27T00:39:33.089Z,25.90
2023-03-27T00:42:00.857Z,25.90
2023-03-27T00:44:34.356Z,25.90
2023-03-27T00:47:05.097Z,25.90
2023-03-27T00:49:37.124Z,25.90
2023-03-27T00:52:07.058Z,25.90
2023-03-27T00:54:36.654Z,25.90
2023-03-27T00:57:08.504Z,25.90
2023-03-27T00:59:40.692Z,25.90
2023-03-27T01:02:10.749Z,25.90
2023-03-27T01:04:39.538Z,25.90
2023-03-27T01:07:11.187Z,25.90
2023-03-27T01:09:38.973Z,25.90
2023-03-27T01:12:27.158Z,25.80
2023-03-27T01:15:16.391Z,25.80
2023-03-27T01:18:01.850Z,25.80
2023-03-27T01:21:08.547Z,25.80
2023-03-27T01:24:04.047Z,25.80
2023-03-27T01:26:58.240Z,25.80
2023-03-27T01:29:49.081Z,25.80
2023-03-27T01:32:56.456Z,25.80
2023-03-27T01:35:49.812Z,25.80
2023-03-27T01:39:05.990Z,25.70
2023-03-27T01:41:39.579Z,25.70
2023-03-27T01:44:14.793Z,25.70
2023-03-27T01:46:49.302Z,25.70
2023-03-27T01:49:22.124Z,25.70
2023-03-27T01:51:53.019Z,25.70
2023-03-27T01:54:25.800Z,25.70
2023-03-27T01:57:02.293Z,25.70
2023-03-27T01:59:33.699Z,25.70
2023-03-27T02:02:04.525Z,25.70
2023-03-27T02:04:39.402Z,25.70
2023-03-27T02:07:13.991Z,25.70
2023-03-27T02:09:44.963Z,25.70
2023-03-27T02:12:19.628Z,25.70
2023-03-27T02:14:53.299Z,25.70
2023-03-27T02:17:26.164Z,25.70
2023-03-27T02:19:58.382Z,25.70
2023-03-27T02:22:37.546Z,25.60
2023-03-27T02:25:25.053Z,25.60
2023-03-27T02:28:04.009Z,25.60
2023-03-27T02:30:38.770Z,25.60
2023-03-27T02:33:17.615Z,25.60
2023-03-27T02:35:50.967Z,25.60
2023-03-27T02:38:23.490Z,25.60
2023-03-27T02:40:59.777Z,25.60
2023-03-27T02:43:34.498Z,25.60
2023-03-27T02:46:06.314Z,25.60
2023-03-27T02:48:38.795Z,25.60
2023-03-27T02:51:10.831Z,25.60
2023-03-27T02:53:43.236Z,25.60
2023-03-27T02:56:12.949Z,25.60
2023-03-27T02:58:47.601Z,25.60
2023-03-27T03:01:19.534Z,25.50
2023-03-27T03:03:53.757Z,25.50
2023-03-27T03:06:22.767Z,25.50
2023-03-27T03:08:50.579Z,25.50
2023-03-27T03:11:18.799Z,25.50
2023-03-27T03:13:48.246Z,25.50
2023-03-27T03:16:15.859Z,25.50
2023-03-27T03:18:43.530Z,25.50
2023-03-27T03:21:11.092Z,25.50
2023-03-27T03:23:39.117Z,25.50
2023-03-27T03:26:07.690Z,25.50
2023-03-27T03:28:35.845Z,25.50
2023-03-27T03:31:05.565Z,25.50
2023-03-27T03:33:34.412Z,25.50
2023-03-27T03:36:02.145Z,25.50
2023-03-27T03:38:38.143Z,25.40
2023-03-27T03:41:06.796Z,25.40
2023-03-27T03:43:34.841Z,25.40
2023-03-27T03:46:04.108Z,25.40
2023-03-27T03:48:31.833Z,25.40
2023-03-27T03:50:59.634Z,25.40
2023-03-27T03:53:27.458Z,25.40
2023-03-27T03:55:55.178Z,25.40
2023-03-27T03:58:34.934Z,25.40
2023-03-27T04:01:04.874Z,25.40
2023-03-27T04:03:32.789Z,25.40
2023-03-27T04:06:01.746Z,25.40
2023-03-27T04:08:29.618Z,25.40
2023-03-27T04:10:57.355Z,25.40
2023-03-27T04:13:25.603Z,25.40
2023-03-27T04:15:54.017Z,25.30
2023-03-27T04:18:24.722Z,25.30
2023-03-27T04:20:54.339Z,25.30
2023-03-27T04:23:22.132Z,25.30
2023-03-27T04:25:49.832Z,25.30
2023-03-27T04:28:17.505Z,25.30
2023-03-27T04:30:50.315Z,25.30
2023-03-27T04:33:19.323Z,25.30
2023-03-27T04:36:05.954Z,25.30
2023-03-27T04:38:36.964Z,25.30
2023-03-27T04:41:05.099Z,25.30
2023-03-27T04:43:36.538Z,25.30
2023-03-27T04:46:05.912Z,25.30
2023-03-27T04:48:33.668Z,25.30
2023-03-27T04:51:03.134Z,25.30
2023-03-27T04:53:32.028Z,25.30
2023-03-27T04:55:59.722Z,25.30
2023-03-27T04:58:28.392Z,25.30
2023-03-27T05:00:57.565Z,25.30
2023-03-27T05:03:26.043Z,25.30
2023-03-27T05:05:54.158Z,25.30
2023-03-27T05:08:23.102Z,25.30
2023-03-27T05:10:50.751Z,25.30
2023-03-27T05:13:18.344Z,25.30
2023-03-27T05:15:45.968Z,25.30
2023-03-27T05:18:13.563Z,25.30
2023-03-27T05:20:41.138Z,25.30
2023-03-27T05:23:08.782Z,25.30
2023-03-27T05:25:39.453Z,25.30
2023-03-27T05:28:07.480Z,25.30
2023-03-27T05:30:35.640Z,25.30
2023-03-27T05:33:03.451Z,25.30
2023-03-27T05:35:31.672Z,25.30
2023-03-27T05:37:59.351Z,25.30
2023-03-27T05:40:28.215Z,25.30
2023-03-27T05:42:57.756Z,25.30
2023-03-27T05:45:26.132Z,25.30
2023-03-27T05:47:55.090Z,25.30
2023-03-27T05:50:26.477Z,25.30
2023-03-27T05:52:58.228Z,25.30
2023-03-27T05:55:27.983Z,25.30
2023-03-27T05:57:57.157Z,25.30
2023-03-27T06:00:26.516Z,25.30
2023-03-27T06:02:56.239Z,25.30
2023-03-27T06:05:24.704Z,25.30
2023-03-27T06:07:52.475Z,25.30
2023-03-27T06:10:21.323Z,25.30
2023-03-27T06:12:49.284Z,25.30
2023-03-27T06:15:18.296Z,25.30
2023-03-27T06:17:48.560Z,25.30
2023-03-27T06:20:16.245Z,25.30
2023-03-27T06:22:47.036Z,25.30
2023-03-27T06:25:15.556Z,25.30
2023-03-27T06:27:43.393Z,25.30
2023-03-27T06:30:12.926Z,25.30
2023-03-27T06:32:46.121Z,25.30
2023-03-27T06:35:14.911Z,25.30
2023-03-27T06:37:42.867Z,25.30
2023-03-27T06:40:20.014Z,25.30
2023-03-27T06:42:51.025Z,25.30
2023-03-27T06:45:18.866Z,25.30
2023-03-27T06:47:55.300Z,25.30
2023-03-27T06:50:25.232Z,25.30
2023-03-27T06:52:53.075Z,25.30
2023-03-27T06:55:22.028Z,25.30
2023-03-27T06:57:51.528Z,25.30
2023-03-27T07:00:22.715Z,25.30
2023-03-27T07:02:55.523Z,25.40
2023-03-27T07:05:23.420Z,25.40
2023-03-27T07:07:51.550Z,25.40
2023-03-27T07:10:19.743Z,25.40
2023-03-27T07:12:48.046Z,25.40
2023-03-27T07:15:16.292Z,25.40
2023-03-27T07:17:49.142Z,25.40
2023-03-27T07:20:18.468Z,25.40
2023-03-27T07:22:46.042Z,25.40
2023-03-27T07:25:13.718Z,25.40
2023-03-27T07:27:41.647Z,25.40
2023-03-27T07:30:12.183Z,25.40
2023-03-27T07:32:40.572Z,25.40
2023-03-27T07:35:09.180Z,25.50
2023-03-27T07:37:39.052Z,25.50
2023-03-27T07:40:08.471Z,25.50
2023-03-27T07:42:36.440Z,25.50
2023-03-27T07:45:05.017Z,25.50
2023-03-27T07:47:32.696Z,25.50
2023-03-27T07:50:00.656Z,25.50
2023-03-27T07:52:29.634Z,25.60
2023-03-27T07:54:59.031Z,25.60
2023-03-27T07:57:27.051Z,25.60
2023-03-27T07:59:57.361Z,25.60
2023-03-27T08:02:26.062Z,25.70
2023-03-27T08:04:55.226Z,25.70
2023-03-27T08:07:24.490Z,25.80
2023-03-27T08:09:57.480Z,25.90
2023-03-27T08:12:26.598Z,26.00
2023-03-27T08:14:54.592Z,26.20
2023-03-27T08:17:22.387Z,26.40
2023-03-27T08:19:50.063Z,26.70
2023-03-27T08:22:18.904Z,27.00
2023-03-27T08:24:47.020Z,27.30
2023-03-27T08:27:14.632Z,27.60
2023-03-27T08:29:44.836Z,27.90
2023-03-27T08:32:12.675Z,28.20
2023-03-27T08:34:40.826Z,28.50
2023-03-27T08:37:08.711Z,28.80
2023-03-27T08:39:36.661Z,29.10
2023-03-27T08:42:06.963Z,29.40
2023-03-27T08:44:36.227Z,29.70
2023-03-27T08:47:11.481Z,29.90
2023-03-27T08:49:44.014Z,30.20
2023-03-27T08:52:15.725Z,30.30
2023-03-27T08:54:46.667Z,30.60
2023-03-27T08:57:19.765Z,30.70
2023-03-27T08:59:47.703Z,30.90
2023-03-27T09:02:29.764Z,30.90
2023-03-27T09:05:02.606Z,31.00
2023-03-27T09:07:36.084Z,31.00
2023-03-27T09:10:10.393Z,31.00
2023-03-27T09:12:50.704Z,31.00
2023-03-27T09:15:26.023Z,31.00
2023-03-27T09:17:59.869Z,31.10
2023-03-27T09:20:32.228Z,31.20
2023-03-27T09:23:05.924Z,31.10
2023-03-27T09:25:38.328Z,31.10
2023-03-27T09:28:18.410Z,31.10
2023-03-27T09:30:46.065Z,31.00
2023-03-27T09:33:15.882Z,31.00
2023-03-27T09:35:43.645Z,31.00
2023-03-27T09:38:24.566Z,31.00
2023-03-27T09:40:58.050Z,31.00
2023-03-27T09:43:29.676Z,31.00
2023-03-27T09:45:58.330Z,31.00
2023-03-27T09:48:35.973Z,31.10
2023-03-27T09:51:05.166Z,31.00
2023-03-27T09:53:33.355Z,31.00
2023-03-27T09:56:04.473Z,31.00
2023-03-27T09:58:36.734Z,30.90
2023-03-27T10:01:13.342Z,30.90
2023-03-27T10:03:48.733Z,30.90
2023-03-27T10:06:26.130Z,30.90
2023-03-27T10:08:55.475Z,30.90
2023-03-27T10:11:26.644Z,30.90
2023-03-27T10:13:55.557Z,30.90
2023-03-27T10:16:23.943Z,30.90
2023-03-27T10:18:56.434Z,30.80
2023-03-27T10:21:29.170Z,30.80
2023-03-27T10:24:02.929Z,30.70
2023-03-27T10:26:33.857Z,30.60
2023-03-27T10:29:07.271Z,30.60
2023-03-27T10:31:37.949Z,30.50
2023-03-27T10:34:27.952Z,30.50
2023-03-27T10:36:55.771Z,30.40
2023-03-27T10:39:28.731Z,30.40
2023-03-27T10:41:57.505Z,30.30
2023-03-27T10:44:27.258Z,30.30
2023-03-27T10:46:55.639Z,30.20
2023-03-27T10:49:33.557Z,30.20
2023-03-27T10:52:13.243Z,30.10
2023-03-27T10:54:47.497Z,30.10
2023-03-27T10:57:19.395Z,30.00
2023-03-27T10:59:50.698Z,30.00
2023-03-27T11:02:21.593Z,30.00
2023-03-27T11:04:54.767Z,29.90
2023-03-27T11:07:26.789Z,29.90
2023-03-27T11:10:03.111Z,29.80
2023-03-27T11:12:33.023Z,29.70
2023-03-27T11:15:07.329Z,29.70
2023-03-27T11:17:41.872Z,29.60
2023-03-27T11:20:21.586Z,29.50
2023-03-27T11:22:55.751Z,29.40
2023-03-27T11:25:31.819Z,29.40
2023-03-27T11:28:07.121Z,29.30
2023-03-27T11:30:39.613Z,29.30
2023-03-27T11:33:24.213Z,29.20
2023-03-27T11:35:59.738Z,29.20
2023-03-27T11:38:32.444Z,29.10
2023-03-27T11:41:00.897Z,29.10
2023-03-27T11:43:28.675Z,29.10
2023-03-27T11:46:04.242Z,29.00
2023-03-27T11:48:53.258Z,29.00
2023-03-27T11:51:33.270Z,29.00
2023-03-27T11:54:14.405Z,29.00
2023-03-27T11:56:52.194Z,28.90
2023-03-27T11:59:40.158Z,28.90
2023-03-27T12:02:23.430Z,28.90
2023-03-27T12:04:56.261Z,28.90
2023-03-27T12:07:40.613Z,28.80
2023-03-27T12:10:29.146Z,28.80
2023-03-27T12:13:24.311Z,28.80
2023-03-27T12:16:09.127Z,28.80
2023-03-27T12:21:29.294Z,28.70
2023-03-27T12:24:15.741Z,28.70
2023-03-27T12:27:05.444Z,28.70
2023-03-27T12:29:49.121Z,28.70
2023-03-27T12:32:26.623Z,28.60
2023-03-27T12:34:57.199Z,28.60
2023-03-27T12:37:29.899Z,28.60
2023-03-27T12:40:00.787Z,28.50
2023-03-27T12:42:51.707Z,28.50
2023-03-27T12:45:22.351Z,28.50
2023-03-27T12:48:09.830Z,28.40
2023-03-27T12:50:45.690Z,28.40
2023-03-27T12:53:20.749Z,28.40
2023-03-27T12:55:49.924Z,28.40
2023-03-27T12:58:33.224Z,28.30
2023-03-27T13:01:03.064Z,28.30
2023-03-27T13:03:57.664Z,28.30
2023-03-27T13:06:35.059Z,28.30
2023-03-27T13:09:17.244Z,28.20
2023-03-27T13:12:04.369Z,28.20
2023-03-27T13:14:51.585Z,28.20
2023-03-27T13:17:42.287Z,28.20
2023-03-27T13:20:20.687Z,28.20
2023-03-27T13:23:02.886Z,28.10
2023-03-27T13:25:48.127Z,28.10
2023-03-27T13:28:28.258Z,28.10
2023-03-27T13:30:57.898Z,28.00
2023-03-27T13:33:27.984Z,28.00
2023-03-27T13:36:06.042Z,28.00
2023-03-27T13:38:45.923Z,28.00
2023-03-27T13:41:52.190Z,27.90
2023-03-27T13:44:29.080Z,27.90
2023-03-27T13:47:08.559Z,27.90
2023-03-27T13:49:56.078Z,27.90
2023-03-27T13:52:38.784Z,27.90
2023-03-27T13:55:36.670Z,27.80
2023-03-27T13:58:16.678Z,27.80
2023-03-27T14:00:58.672Z,27.80
2023-03-27T14:03:56.713Z,27.80
2023-03-27T14:07:02.374Z,27.80
2023-03-27T14:09:48.954Z,27.80
2023-03-27T14:12:21.500Z,27.80
2023-03-27T14:15:09.181Z,27.70
2023-03-27T14:17:50.850Z,27.70
2023-03-27T14:20:23.551Z,27.70
2023-03-27T14:22:58.920Z,27.70
2023-03-27T14:25:34.092Z,27.70
2023-03-27T14:28:02.442Z,27.70
2023-03-27T14:30:33.579Z,27.70
2023-03-27T14:33:09.691Z,27.60
2023-03-27T14:35:39.798Z,27.60
2023-03-27T14:38:16.714Z,27.60
2023-03-27T14:40:47.468Z,27.60
2023-03-27T14:43:18.340Z,27.60
2023-03-27T14:45:47.015Z,27.60
2023-03-27T14:48:22.946Z,27.60
2023-03-27T14:50:53.729Z,27.60
2023-03-27T14:53:26.632Z,27.60
2023-03-27T14:56:05.623Z,27.50
2023-03-27T14:58:33.514Z,27.50
2023-03-27T15:01:02.889Z,27.50
2023-03-27T15:03:35.328Z,27.50
2023-03-27T15:06:05.884Z,27.40
2023-03-27T15:08:36.988Z,27.40
2023-03-27T15:11:11.893Z,27.40
2023-03-27T15:13:39.556Z,27.40
2023-03-27T15:16:09.451Z,27.40
2023-03-27T15:18:46.850Z,27.40
2023-03-27T15:21:19.925Z,27.30
2023-03-27T15:23:58.745Z,27.30
2023-03-27T15:26:31.577Z,27.30
2023-03-27T15:29:04.096Z,27.20
2023-03-27T15:31:34.176Z,27.20
2023-03-27T15:34:08.255Z,27.20
2023-03-27T15:36:38.377Z,27.20
2023-03-27T15:39:07.360Z,27.10
2023-03-27T15:41:53.640Z,27.20
2023-03-27T15:44:25.282Z,27.10
2023-03-27T15:46:55.325Z,27.10
2023-03-27T15:49:27.795Z,27.10
2023-03-27T15:51:56.689Z,27.10
2023-03-27T15:54:30.640Z,27.10
2023-03-27T15:57:10.418Z,27.10
2023-03-27T15:59:51.614Z,27.00
2023-03-27T16:02:27.493Z,27.00
2023-03-27T16:07:27.375Z,27.00
2023-03-27T16:09:58.367Z,27.00
2023-03-27T16:12:31.746Z,26.90
2023-03-27T16:15:00.893Z,26.90
2023-03-27T16:17:40.451Z,26.90
2023-03-27T16:20:33.886Z,26.90
2023-03-27T16:23:04.213Z,26.90
2023-03-27T16:25:32.017Z,26.80
2023-03-27T16:27:59.725Z,26.80
2023-03-27T16:30:29.918Z,26.80
2023-03-27T16:32:57.844Z,26.80
2023-03-27T16:35:26.721Z,26.80
2023-03-27T16:37:54.650Z,26.80
2023-03-27T16:40:24.136Z,26.70
2023-03-27T16:42:51.843Z,26.70
2023-03-27T16:45:19.706Z,26.70
2023-03-27T16:47:50.747Z,26.70
2023-03-27T16:50:22.403Z,26.70
2023-03-27T16:52:50.099Z,26.70
2023-03-27T16:55:18.413Z,26.70
2023-03-27T16:57:48.168Z,26.60
2023-03-27T17:00:19.985Z,26.60
2023-03-27T17:02:48.471Z,26.60
2023-03-27T17:05:16.226Z,26.60
2023-03-27T17:07:44.892Z,26.60
2023-03-27T17:10:12.700Z,26.60
2023-03-27T17:12:40.405Z,26.50
2023-03-27T17:15:10.416Z,26.50
2023-03-27T17:17:38.146Z,26.50
2023-03-27T17:20:07.795Z,26.50
2023-03-27T17:22:36.141Z,26.40
2023-03-27T17:25:05.746Z,26.40
2023-03-27T17:27:33.886Z,26.40
2023-03-27T17:30:01.655Z,26.40
2023-03-27T17:32:30.884Z,26.30
2023-03-27T17:34:58.665Z,26.30
2023-03-27T17:37:27.309Z,26.30
2023-03-27T17:39:55.940Z,26.30
2023-03-27T17:42:24.019Z,26.20
2023-03-27T17:44:51.665Z,26.20
2023-03-27T17:47:19.373Z,26.20
2023-03-27T17:49:48.367Z,26.20
2023-03-27T17:52:16.368Z,26.20
2023-03-27T17:54:44.051Z,26.10
2023-03-27T17:57:11.813Z,26.10
2023-03-27T17:59:39.535Z,26.10
2023-03-27T18:02:07.662Z,26.10
2023-03-27T18:04:36.430Z,26.00
2023-03-27T18:07:05.487Z,26.00
2023-03-27T18:09:33.249Z,26.00
2023-03-27T18:12:01.142Z,26.00
2023-03-27T18:14:28.962Z,26.00
2023-03-27T18:16:56.654Z,25.90
2023-03-27T18:19:25.285Z,25.90
2023-03-27T18:21:52.930Z,25.90
2023-03-27T18:24:22.088Z,25.90
2023-03-27T18:26:49.756Z,25.90
2023-03-27T18:29:17.580Z,25.80
2023-03-27T18:31:45.587Z,25.80
2023-03-27T18:34:13.992Z,25.80
2023-03-27T18:36:41.674Z,25.80
2023-03-27T18:39:09.844Z,25.80
2023-03-27T18:41:39.716Z,25.80
2023-03-27T18:44:07.571Z,25.80
2023-03-27T18:46:35.281Z,25.80
2023-03-27T18:49:13.619Z,25.70
2023-03-27T18:51:49.500Z,25.70
2023-03-27T18:54:17.224Z,25.70
2023-03-27T18:56:46.633Z,25.70
2023-03-27T18:59:14.411Z,25.70
2023-03-27T19:01:42.089Z,25.70
2023-03-27T19:04:10.336Z,25.70
2023-03-27T19:06:38.096Z,25.70
2023-03-27T19:09:16.772Z,25.70
2023-03-27T19:11:45.905Z,25.70
2023-03-27T19:14:13.738Z,25.70
2023-03-27T19:16:42.322Z,25.70
2023-03-27T19:19:10.949Z,25.70
2023-03-27T19:21:38.635Z,25.60
2023-03-27T19:24:07.012Z,25.60
2023-03-27T19:26:35.332Z,25.60
2023-03-27T19:29:04.686Z,25.60
2023-03-27T19:31:32.572Z,25.60
2023-03-27T19:34:00.278Z,25.60
2023-03-27T19:36:27.926Z,25.60
2023-03-27T19:38:55.607Z,25.60
2023-03-27T19:41:23.294Z,25.60
2023-03-27T19:43:51.169Z,25.50
2023-03-27T19:46:20.264Z,25.50
2023-03-27T19:48:49.646Z,25.50
2023-03-27T19:51:17.433Z,25.50
2023-03-27T19:53:45.391Z,25.50
2023-03-27T19:56:13.675Z,25.50
2023-03-27T19:58:41.353Z,25.50
2023-03-27T20:01:11.346Z,25.50
2023-03-27T20:03:40.489Z,25.50
2023-03-27T20:06:13.396Z,25.50
2023-03-27T20:08:42.237Z,25.50
2023-03-27T20:11:10.059Z,25.50
2023-03-27T20:13:48.899Z,25.50
2023-03-27T20:16:23.474Z,25.50
2023-03-27T20:19:03.245Z,25.50
2023-03-27T20:21:32.491Z,25.50
2023-03-27T20:24:00.258Z,25.50
2023-03-27T20:26:29.865Z,25.50
2023-03-27T20:28:57.552Z,25.50
2023-03-27T20:31:25.424Z,25.50
2023-03-27T20:33:55.003Z,25.50
2023-03-27T20:36:24.142Z,25.50
2023-03-27T20:38:52.958Z,25.50
2023-03-27T20:41:21.879Z,25.50
2023-03-27T20:43:50.964Z,25.50
2023-03-27T20:46:19.038Z,25.50
2023-03-27T20:48:53.520Z,25.50
2023-03-27T20:51:24.379Z,25.50
2023-03-27T20:53:56.166Z,25.50
2023-03-27T20:56:24.843Z,25.50
2023-03-27T20:58:52.817Z,25.50
2023-03-27T21:01:20.647Z,25.50
2023-03-27T21:03:49.763Z,25.50
2023-03-27T21:06:19.714Z,25.50
2023-03-27T21:08:49.378Z,25.50
2023-03-27T21:11:17.128Z,25.50
2023-03-27T21:13:44.781Z,25.50
2023-03-27T21:16:12.503Z,25.50
2023-03-27T21:18:40.207Z,25.50
2023-03-27T21:21:08.329Z,25.60
2023-03-27T21:23:37.074Z,25.60
2023-03-27T21:26:06.912Z,25.60
2023-03-27T21:28:34.938Z,25.60
2023-03-27T21:31:07.289Z,25.60
2023-03-27T21:33:35.037Z,25.60
2023-03-27T21:36:03.045Z,25.60
2023-03-27T21:38:31.008Z,25.60
2023-03-27T21:40:58.700Z,25.60
2023-03-27T21:43:27.763Z,25.60
2023-03-27T21:45:55.550Z,25.60
2023-03-27T21:48:23.248Z,25.60
2023-03-27T21:50:50.914Z,25.60
2023-03-27T21:53:18.579Z,25.60
2023-03-27T21:55:46.625Z,25.60
2023-03-27T21:58:14.308Z,25.60
2023-03-27T22:00:45.617Z,25.60
2023-03-27T22:03:13.260Z,25.60
2023-03-27T22:05:41.154Z,25.60
2023-03-27T22:08:08.853Z,25.60
2023-03-27T22:10:36.894Z,25.60
2023-03-27T22:13:05.173Z,25.60
2023-03-27T22:15:32.871Z,25.60
2023-03-27T22:18:02.351Z,25.60
2023-03-27T22:20:30.244Z,25.60
2023-03-27T22:22:58.073Z,25.60
2023-03-27T22:25:25.954Z,25.60
2023-03-27T22:27:53.656Z,25.60
2023-03-27T22:30:21.556Z,25.60
2023-03-27T22:32:49.228Z,25.60
2023-03-27T22:35:18.370Z,25.60
2023-03-27T22:37:45.996Z,25.60
2023-03-27T22:40:13.931Z,25.60
2023-03-27T22:42:41.617Z,25.60
2023-03-27T22:45:10.382Z,25.60
2023-03-27T22:47:38.109Z,25.60
2023-03-27T22:50:06.698Z,25.60
2023-03-27T22:52:35.714Z,25.50
2023-03-27T22:55:03.405Z,25.50
2023-03-27T22:57:31.269Z,25.50
2023-03-27T22:59:58.908Z,25.50
2023-03-27T23:02:26.679Z,25.50
2023-03-27T23:04:54.452Z,25.50
2023-03-27T23:07:25.298Z,25.50
2023-03-27T23:09:54.379Z,25.50
2023-03-27T23:12:22.063Z,25.50
2023-03-27T23:14:51.707Z,25.40
2023-03-27T23:17:19.420Z,25.40
2023-03-27T23:19:47.102Z,25.40
2023-03-27T23:22:14.761Z,25.40
2023-03-27T23:24:42.636Z,25.40
2023-03-27T23:27:11.667Z,25.40
2023-03-27T23:29:42.465Z,25.40
2023-03-27T23:32:10.413Z,25.30
2023-03-27T23:34:38.193Z,25.30
2023-03-27T23:37:06.085Z,25.30
2023-03-27T23:39:33.773Z,25.30
2023-03-27T23:42:01.753Z,25.30
2023-03-27T23:44:30.938Z,25.30
2023-03-27T23:46:58.609Z,25.30
2023-03-27T23:49:26.273Z,25.20
2023-03-27T23:51:53.918Z,25.20
2023-03-27T23:54:21.745Z,25.20
2023-03-27T23:56:49.448Z,25.20
2023-03-27T23:59:17.154Z,25.20
